sensor_id;sensor_type;location;lat;lon;timestamp;pressure;altitude;pressure_sealevel;temperature;humidity
7474;BME280;3778;42.572;23.426;2024-03-08T00:00:02;93648.03;;;3.39;89.93
7474;BME280;3778;42.572;23.426;2024-03-08T00:02:36;93654.34;;;3.37;89.29
7474;BME280;3778;42.572;23.426;2024-03-08T00:05:03;93649.34;;;3.30;90.41
7474;BME280;3778;42.572;23.426;2024-03-08T00:07:29;93646.50;;;3.20;91.15
7474;BME280;3778;42.572;23.426;2024-03-08T00:09:54;93643.75;;;3.21;90.80
7474;BME280;3778;42.572;23.426;2024-03-08T00:12:19;93646.66;;;3.25;90.88
7474;BME280;3778;42.572;23.426;2024-03-08T00:14:45;93650.06;;;3.19;90.25
7474;BME280;3778;42.572;23.426;2024-03-08T00:17:11;93653.38;;;3.19;91.49
7474;BME280;3778;42.572;23.426;2024-03-08T00:19:36;93650.19;;;3.24;90.46
7474;BME280;3778;42.572;23.426;2024-03-08T00:22:02;93648.78;;;3.28;90.53
7474;BME280;3778;42.572;23.426;2024-03-08T00:24:27;93643.78;;;3.33;90.22
7474;BME280;3778;42.572;23.426;2024-03-08T00:26:54;93638.69;;;3.33;90.72
7474;BME280;3778;42.572;23.426;2024-03-08T00:29:20;93639.69;;;3.32;90.74
7474;BME280;3778;42.572;23.426;2024-03-08T00:31:45;93637.28;;;3.37;89.83
7474;BME280;3778;42.572;23.426;2024-03-08T00:34:10;93639.63;;;3.39;89.85
7474;BME280;3778;42.572;23.426;2024-03-08T00:36:37;93635.28;;;3.39;90.00
7474;BME280;3778;42.572;23.426;2024-03-08T00:39:03;93633.75;;;3.38;91.22
7474;BME280;3778;42.572;23.426;2024-03-08T00:41:31;93629.88;;;3.36;90.33
7474;BME280;3778;42.572;23.426;2024-03-08T00:43:57;93626.97;;;3.32;90.45
7474;BME280;3778;42.572;23.426;2024-03-08T00:46:22;93623.66;;;3.32;91.28
7474;BME280;3778;42.572;23.426;2024-03-08T00:48:48;93616.22;;;3.30;91.23
7474;BME280;3778;42.572;23.426;2024-03-08T00:51:13;93616.44;;;3.29;91.26
7474;BME280;3778;42.572;23.426;2024-03-08T00:53:40;93612.44;;;3.33;91.02
7474;BME280;3778;42.572;23.426;2024-03-08T00:56:07;93610.34;;;3.30;90.13
7474;BME280;3778;42.572;23.426;2024-03-08T00:58:36;93606.69;;;3.26;91.25
7474;BME280;3778;42.572;23.426;2024-03-08T01:01:02;93603.34;;;3.25;90.74
7474;BME280;3778;42.572;23.426;2024-03-08T01:03:28;93609.59;;;3.29;91.42
7474;BME280;3778;42.572;23.426;2024-03-08T01:05:53;93602.72;;;3.30;91.48
7474;BME280;3778;42.572;23.426;2024-03-08T01:08:19;93602.34;;;3.26;91.53
7474;BME280;3778;42.572;23.426;2024-03-08T01:10:44;93601.91;;;3.17;92.33
7474;BME280;3778;42.572;23.426;2024-03-08T01:13:10;93599.81;;;3.26;92.15
7474;BME280;3778;42.572;23.426;2024-03-08T01:15:35;93600.44;;;3.21;91.54
7474;BME280;3778;42.572;23.426;2024-03-08T01:18:01;93598.91;;;3.20;90.88
7474;BME280;3778;42.572;23.426;2024-03-08T01:20:27;93591.63;;;3.24;91.98
7474;BME280;3778;42.572;23.426;2024-03-08T01:22:53;93595.34;;;3.21;91.11
7474;BME280;3778;42.572;23.426;2024-03-08T01:25:18;93593.16;;;3.25;91.61
7474;BME280;3778;42.572;23.426;2024-03-08T01:27:44;93588.63;;;3.27;91.01
7474;BME280;3778;42.572;23.426;2024-03-08T01:30:09;93590.63;;;3.25;90.72
7474;BME280;3778;42.572;23.426;2024-03-08T01:32:35;93584.75;;;3.25;90.86
7474;BME280;3778;42.572;23.426;2024-03-08T01:35:01;93582.84;;;3.20;92.13
7474;BME280;3778;42.572;23.426;2024-03-08T01:37:27;93577.44;;;3.16;92.47
7474;BME280;3778;42.572;23.426;2024-03-08T01:39:54;93577.63;;;3.15;91.85
7474;BME280;3778;42.572;23.426;2024-03-08T01:42:20;93584.28;;;3.16;92.46
7474;BME280;3778;42.572;23.426;2024-03-08T01:44:45;93578.13;;;3.23;91.64
7474;BME280;3778;42.572;23.426;2024-03-08T01:47:11;93582.28;;;3.18;91.60
7474;BME280;3778;42.572;23.426;2024-03-08T01:49:37;93583.63;;;3.20;91.70
7474;BME280;3778;42.572;23.426;2024-03-08T01:52:03;93581.97;;;3.26;92.17
7474;BME280;3778;42.572;23.426;2024-03-08T01:54:29;93586.16;;;3.20;92.12
7474;BME280;3778;42.572;23.426;2024-03-08T01:56:56;93582.44;;;3.23;91.64
7474;BME280;3778;42.572;23.426;2024-03-08T01:59:24;93580.34;;;3.32;91.55
7474;BME280;3778;42.572;23.426;2024-03-08T02:01:54;93582.16;;;3.43;91.66
7474;BME280;3778;42.572;23.426;2024-03-08T02:04:20;93577.16;;;3.36;90.42
7474;BME280;3778;42.572;23.426;2024-03-08T02:06:46;93580.91;;;3.34;90.56
7474;BME280;3778;42.572;23.426;2024-03-08T02:09:13;93583.53;;;3.27;91.52
7474;BME280;3778;42.572;23.426;2024-03-08T02:11:41;93578.19;;;3.17;91.68
7474;BME280;3778;42.572;23.426;2024-03-08T02:14:06;93579.97;;;3.16;92.48
7474;BME280;3778;42.572;23.426;2024-03-08T02:16:32;93585.78;;;3.05;91.95
7474;BME280;3778;42.572;23.426;2024-03-08T02:18:58;93576.81;;;3.03;91.40
7474;BME280;3778;42.572;23.426;2024-03-08T02:21:24;93580.47;;;3.07;92.85
7474;BME280;3778;42.572;23.426;2024-03-08T02:23:49;93589.88;;;3.06;92.70
7474;BME280;3778;42.572;23.426;2024-03-08T02:26:17;93583.75;;;2.95;92.20
7474;BME280;3778;42.572;23.426;2024-03-08T02:28:44;93581.97;;;2.96;92.32
7474;BME280;3778;42.572;23.426;2024-03-08T02:31:09;93588.19;;;3.00;92.91
7474;BME280;3778;42.572;23.426;2024-03-08T02:33:35;93584.88;;;3.00;91.76
7474;BME280;3778;42.572;23.426;2024-03-08T02:36:00;93585.78;;;3.05;92.29
7474;BME280;3778;42.572;23.426;2024-03-08T02:38:26;93587.97;;;3.02;91.96
7474;BME280;3778;42.572;23.426;2024-03-08T02:40:53;93592.28;;;3.01;91.33
7474;BME280;3778;42.572;23.426;2024-03-08T02:43:20;93590.59;;;2.95;91.97
7474;BME280;3778;42.572;23.426;2024-03-08T02:45:47;93588.84;;;2.95;91.29
7474;BME280;3778;42.572;23.426;2024-03-08T02:48:14;93593.03;;;2.90;91.45
7474;BME280;3778;42.572;23.426;2024-03-08T02:50:41;93595.69;;;2.95;91.65
7474;BME280;3778;42.572;23.426;2024-03-08T02:53:10;93599.78;;;2.96;91.77
7474;BME280;3778;42.572;23.426;2024-03-08T02:55:36;93601.00;;;2.93;92.68
7474;BME280;3778;42.572;23.426;2024-03-08T02:58:03;93603.78;;;2.92;91.35
7474;BME280;3778;42.572;23.426;2024-03-08T03:00:29;93604.97;;;2.89;92.39
7474;BME280;3778;42.572;23.426;2024-03-08T03:02:56;93601.78;;;2.94;92.19
7474;BME280;3778;42.572;23.426;2024-03-08T03:05:22;93606.31;;;2.92;90.91
7474;BME280;3778;42.572;23.426;2024-03-08T03:07:48;93610.19;;;2.94;91.23
7474;BME280;3778;42.572;23.426;2024-03-08T03:10:14;93605.19;;;2.88;91.94
7474;BME280;3778;42.572;23.426;2024-03-08T03:12:42;93606.25;;;2.80;92.45
7474;BME280;3778;42.572;23.426;2024-03-08T03:15:08;93606.91;;;2.76;92.50
7474;BME280;3778;42.572;23.426;2024-03-08T03:17:33;93607.66;;;2.76;91.95
7474;BME280;3778;42.572;23.426;2024-03-08T03:19:59;93612.47;;;2.84;91.42
7474;BME280;3778;42.572;23.426;2024-03-08T03:22:27;93612.47;;;2.84;92.25
7474;BME280;3778;42.572;23.426;2024-03-08T03:24:55;93618.56;;;2.83;90.58
7474;BME280;3778;42.572;23.426;2024-03-08T03:27:23;93624.41;;;2.84;89.69
7474;BME280;3778;42.572;23.426;2024-03-08T03:29:50;93621.38;;;2.75;90.51
7474;BME280;3778;42.572;23.426;2024-03-08T03:32:17;93622.31;;;2.81;90.66
7474;BME280;3778;42.572;23.426;2024-03-08T03:34:44;93621.25;;;2.88;89.73
7474;BME280;3778;42.572;23.426;2024-03-08T03:37:10;93622.44;;;2.86;89.84
7474;BME280;3778;42.572;23.426;2024-03-08T03:39:39;93619.00;;;2.80;90.68
7474;BME280;3778;42.572;23.426;2024-03-08T03:42:18;93626.69;;;2.92;90.29
7474;BME280;3778;42.572;23.426;2024-03-08T03:44:47;93623.22;;;2.86;89.31
7474;BME280;3778;42.572;23.426;2024-03-08T03:47:13;93628.59;;;2.78;89.28
7474;BME280;3778;42.572;23.426;2024-03-08T03:49:40;93632.06;;;2.84;90.40
7474;BME280;3778;42.572;23.426;2024-03-08T03:52:06;93630.34;;;2.78;90.60
7474;BME280;3778;42.572;23.426;2024-03-08T03:54:31;93634.03;;;2.82;90.66
7474;BME280;3778;42.572;23.426;2024-03-08T03:56:58;93635.03;;;2.81;90.24
7474;BME280;3778;42.572;23.426;2024-03-08T03:59:23;93631.56;;;2.75;90.89
7474;BME280;3778;42.572;23.426;2024-03-08T04:01:49;93633.69;;;2.78;89.73
7474;BME280;3778;42.572;23.426;2024-03-08T04:04:15;93638.34;;;2.81;90.89
7474;BME280;3778;42.572;23.426;2024-03-08T04:06:40;93637.59;;;2.81;89.43
7474;BME280;3778;42.572;23.426;2024-03-08T04:09:06;93636.59;;;2.82;90.72
7474;BME280;3778;42.572;23.426;2024-03-08T04:11:31;93645.69;;;2.71;89.70
7474;BME280;3778;42.572;23.426;2024-03-08T04:13:57;93642.16;;;2.72;90.64
7474;BME280;3778;42.572;23.426;2024-03-08T04:16:22;93642.09;;;2.60;90.90
7474;BME280;3778;42.572;23.426;2024-03-08T04:18:49;93645.38;;;2.67;89.86
7474;BME280;3778;42.572;23.426;2024-03-08T04:21:14;93647.31;;;2.65;90.08
7474;BME280;3778;42.572;23.426;2024-03-08T04:23:39;93644.06;;;2.58;90.51
7474;BME280;3778;42.572;23.426;2024-03-08T04:26:05;93652.13;;;2.55;91.14
7474;BME280;3778;42.572;23.426;2024-03-08T04:28:31;93659.97;;;2.54;91.70
7474;BME280;3778;42.572;23.426;2024-03-08T04:30:57;93664.63;;;2.57;92.04
7474;BME280;3778;42.572;23.426;2024-03-08T04:33:23;93656.78;;;2.58;91.66
7474;BME280;3778;42.572;23.426;2024-03-08T04:35:49;93663.44;;;2.59;90.75
7474;BME280;3778;42.572;23.426;2024-03-08T04:38:14;93667.81;;;2.52;90.45
7474;BME280;3778;42.572;23.426;2024-03-08T04:40:41;93670.78;;;2.49;90.80
7474;BME280;3778;42.572;23.426;2024-03-08T04:43:06;93665.09;;;2.47;89.18
7474;BME280;3778;42.572;23.426;2024-03-08T04:45:33;93669.09;;;2.36;89.94
7474;BME280;3778;42.572;23.426;2024-03-08T04:47:59;93682.03;;;2.35;89.76
7474;BME280;3778;42.572;23.426;2024-03-08T04:50:24;93665.44;;;2.32;89.27
7474;BME280;3778;42.572;23.426;2024-03-08T04:52:50;93683.25;;;2.32;88.97
7474;BME280;3778;42.572;23.426;2024-03-08T04:55:15;93680.94;;;2.24;89.21
7474;BME280;3778;42.572;23.426;2024-03-08T04:57:40;93671.63;;;2.18;89.55
7474;BME280;3778;42.572;23.426;2024-03-08T05:00:10;93689.63;;;2.17;88.28
7474;BME280;3778;42.572;23.426;2024-03-08T05:02:40;93687.47;;;2.20;88.41
7474;BME280;3778;42.572;23.426;2024-03-08T05:05:07;93691.56;;;2.21;88.01
7474;BME280;3778;42.572;23.426;2024-03-08T05:07:32;93696.59;;;2.28;88.61
7474;BME280;3778;42.572;23.426;2024-03-08T05:10:01;93691.50;;;2.28;87.90
7474;BME280;3778;42.572;23.426;2024-03-08T05:12:27;93691.50;;;2.28;87.47
7474;BME280;3778;42.572;23.426;2024-03-08T05:14:53;93690.56;;;2.22;87.53
7474;BME280;3778;42.572;23.426;2024-03-08T05:17:19;93703.66;;;2.26;87.85
7474;BME280;3778;42.572;23.426;2024-03-08T05:19:44;93695.03;;;2.27;87.83
7474;BME280;3778;42.572;23.426;2024-03-08T05:22:10;93700.38;;;2.19;88.15
7474;BME280;3778;42.572;23.426;2024-03-08T05:24:35;93703.22;;;2.29;88.69
7474;BME280;3778;42.572;23.426;2024-03-08T05:27:00;93705.41;;;2.25;87.00
7474;BME280;3778;42.572;23.426;2024-03-08T05:29:27;93720.19;;;2.35;87.47
7474;BME280;3778;42.572;23.426;2024-03-08T05:31:54;93717.25;;;2.38;87.29
7474;BME280;3778;42.572;23.426;2024-03-08T05:34:20;93719.34;;;2.41;88.25
7474;BME280;3778;42.572;23.426;2024-03-08T05:36:46;93721.84;;;2.48;88.31
7474;BME280;3778;42.572;23.426;2024-03-08T05:39:12;93722.78;;;2.53;88.88
7474;BME280;3778;42.572;23.426;2024-03-08T05:41:38;93721.09;;;2.65;89.83
7474;BME280;3778;42.572;23.426;2024-03-08T05:44:07;93730.88;;;2.68;88.84
7474;BME280;3778;42.572;23.426;2024-03-08T05:46:34;93731.66;;;2.69;88.42
7474;BME280;3778;42.572;23.426;2024-03-08T05:49:00;93725.72;;;2.75;88.03
7474;BME280;3778;42.572;23.426;2024-03-08T05:51:25;93736.91;;;2.74;88.64
7474;BME280;3778;42.572;23.426;2024-03-08T05:53:54;93744.16;;;2.71;87.42
7474;BME280;3778;42.572;23.426;2024-03-08T05:56:22;93746.41;;;2.60;88.40
7474;BME280;3778;42.572;23.426;2024-03-08T05:58:48;93749.09;;;2.65;88.51
7474;BME280;3778;42.572;23.426;2024-03-08T06:01:15;93744.59;;;2.67;87.95
7474;BME280;3778;42.572;23.426;2024-03-08T06:03:41;93753.19;;;2.66;88.55
7474;BME280;3778;42.572;23.426;2024-03-08T06:06:12;93756.56;;;2.60;89.69
7474;BME280;3778;42.572;23.426;2024-03-08T06:08:37;93758.22;;;2.48;90.03
7474;BME280;3778;42.572;23.426;2024-03-08T06:11:03;93766.13;;;2.40;90.13
7474;BME280;3778;42.572;23.426;2024-03-08T06:13:29;93765.19;;;2.34;91.05
7474;BME280;3778;42.572;23.426;2024-03-08T06:15:56;93767.75;;;2.34;90.65
7474;BME280;3778;42.572;23.426;2024-03-08T06:18:22;93762.09;;;2.32;90.96
7474;BME280;3778;42.572;23.426;2024-03-08T06:20:47;93769.66;;;2.39;89.92
7474;BME280;3778;42.572;23.426;2024-03-08T06:23:12;93768.47;;;2.41;89.81
7474;BME280;3778;42.572;23.426;2024-03-08T06:25:39;93767.44;;;2.49;89.21
7474;BME280;3778;42.572;23.426;2024-03-08T06:28:04;93771.13;;;2.53;91.05
7474;BME280;3778;42.572;23.426;2024-03-08T06:30:30;93767.34;;;2.62;89.36
7474;BME280;3778;42.572;23.426;2024-03-08T06:32:56;93782.56;;;2.44;89.77
7474;BME280;3778;42.572;23.426;2024-03-08T06:35:21;93782.28;;;2.52;89.15
7474;BME280;3778;42.572;23.426;2024-03-08T06:37:47;93782.34;;;2.46;90.10
7474;BME280;3778;42.572;23.426;2024-03-08T06:40:12;93789.41;;;2.44;89.66
7474;BME280;3778;42.572;23.426;2024-03-08T06:42:41;93774.09;;;2.50;89.50
7474;BME280;3778;42.572;23.426;2024-03-08T06:45:07;93785.88;;;2.45;88.99
7474;BME280;3778;42.572;23.426;2024-03-08T06:47:34;93779.22;;;2.44;89.52
7474;BME280;3778;42.572;23.426;2024-03-08T06:49:59;93787.63;;;2.44;90.20
7474;BME280;3778;42.572;23.426;2024-03-08T06:52:25;93787.97;;;2.48;88.93
7474;BME280;3778;42.572;23.426;2024-03-08T06:54:50;93790.75;;;2.46;87.55
7474;BME280;3778;42.572;23.426;2024-03-08T06:57:17;93792.91;;;2.42;88.36
7474;BME280;3778;42.572;23.426;2024-03-08T06:59:43;93796.44;;;2.41;87.29
7474;BME280;3778;42.572;23.426;2024-03-08T07:02:08;93801.34;;;2.43;86.74
7474;BME280;3778;42.572;23.426;2024-03-08T07:04:34;93811.69;;;2.41;86.48
7474;BME280;3778;42.572;23.426;2024-03-08T07:07:04;93806.44;;;2.36;86.49
7474;BME280;3778;42.572;23.426;2024-03-08T07:09:29;93809.59;;;2.38;86.47
7474;BME280;3778;42.572;23.426;2024-03-08T07:11:55;93807.44;;;2.35;84.40
7474;BME280;3778;42.572;23.426;2024-03-08T07:14:22;93809.59;;;2.38;85.62
7474;BME280;3778;42.572;23.426;2024-03-08T07:16:47;93801.38;;;2.36;85.26
7474;BME280;3778;42.572;23.426;2024-03-08T07:19:13;93813.25;;;2.49;85.08
7474;BME280;3778;42.572;23.426;2024-03-08T07:21:38;93808.34;;;2.48;83.96
7474;BME280;3778;42.572;23.426;2024-03-08T07:24:04;93805.41;;;2.51;85.44
7474;BME280;3778;42.572;23.426;2024-03-08T07:26:41;93807.50;;;2.54;83.89
7474;BME280;3778;42.572;23.426;2024-03-08T07:29:07;93810.75;;;2.67;84.62
7474;BME280;3778;42.572;23.426;2024-03-08T07:31:33;93801.91;;;2.70;84.04
7474;BME280;3778;42.572;23.426;2024-03-08T07:34:07;93801.31;;;2.75;82.90
7474;BME280;3778;42.572;23.426;2024-03-08T07:36:33;93804.00;;;2.80;82.50
7474;BME280;3778;42.572;23.426;2024-03-08T07:39:00;93802.41;;;2.79;82.90
7474;BME280;3778;42.572;23.426;2024-03-08T07:41:25;93804.97;;;2.79;83.16
7474;BME280;3778;42.572;23.426;2024-03-08T07:43:51;93808.72;;;2.76;83.93
7474;BME280;3778;42.572;23.426;2024-03-08T07:46:17;93809.59;;;2.88;85.11
7474;BME280;3778;42.572;23.426;2024-03-08T07:48:44;93808.31;;;2.79;84.27
7474;BME280;3778;42.572;23.426;2024-03-08T07:51:10;93814.19;;;2.80;83.76
7474;BME280;3778;42.572;23.426;2024-03-08T07:53:37;93816.34;;;2.76;85.99
7474;BME280;3778;42.572;23.426;2024-03-08T07:56:03;93813.41;;;2.79;84.74
7474;BME280;3778;42.572;23.426;2024-03-08T07:58:30;93820.25;;;2.79;85.67
7474;BME280;3778;42.572;23.426;2024-03-08T08:00:55;93825.81;;;2.69;84.88
7474;BME280;3778;42.572;23.426;2024-03-08T08:03:21;93823.22;;;2.76;85.62
7474;BME280;3778;42.572;23.426;2024-03-08T08:05:46;93817.66;;;2.85;83.92
7474;BME280;3778;42.572;23.426;2024-03-08T08:08:12;93819.00;;;2.88;83.50
7474;BME280;3778;42.572;23.426;2024-03-08T08:10:37;93816.19;;;2.96;84.18
7474;BME280;3778;42.572;23.426;2024-03-08T08:13:03;93825.97;;;2.99;85.16
7474;BME280;3778;42.572;23.426;2024-03-08T08:15:31;93816.28;;;3.08;84.39
7474;BME280;3778;42.572;23.426;2024-03-08T08:17:59;93813.31;;;3.11;84.03
7474;BME280;3778;42.572;23.426;2024-03-08T08:20:25;93814.53;;;3.27;83.55
7474;BME280;3778;42.572;23.426;2024-03-08T08:22:51;93808.47;;;3.28;83.07
7474;BME280;3778;42.572;23.426;2024-03-08T08:25:16;93809.66;;;3.25;82.93
7474;BME280;3778;42.572;23.426;2024-03-08T08:27:45;93807.66;;;3.27;83.02
7474;BME280;3778;42.572;23.426;2024-03-08T08:30:11;93801.69;;;3.40;82.01
7474;BME280;3778;42.572;23.426;2024-03-08T08:32:37;93808.34;;;3.59;81.74
7474;BME280;3778;42.572;23.426;2024-03-08T08:35:05;93812.13;;;3.68;81.55
7474;BME280;3778;42.572;23.426;2024-03-08T08:37:31;93810.75;;;3.54;79.85
7474;BME280;3778;42.572;23.426;2024-03-08T08:39:57;93810.09;;;3.77;81.75
7474;BME280;3778;42.572;23.426;2024-03-08T08:42:23;93817.56;;;3.90;79.38
7474;BME280;3778;42.572;23.426;2024-03-08T08:44:48;93810.72;;;3.91;79.54
7474;BME280;3778;42.572;23.426;2024-03-08T08:47:16;93810.41;;;3.99;78.66
7474;BME280;3778;42.572;23.426;2024-03-08T08:49:44;93811.84;;;3.95;77.68
7474;BME280;3778;42.572;23.426;2024-03-08T08:52:11;93800.56;;;4.02;77.71
7474;BME280;3778;42.572;23.426;2024-03-08T08:54:36;93799.91;;;4.07;76.37
7474;BME280;3778;42.572;23.426;2024-03-08T08:57:02;93800.38;;;4.16;75.43
7474;BME280;3778;42.572;23.426;2024-03-08T08:59:35;93804.38;;;4.23;76.44
7474;BME280;3778;42.572;23.426;2024-03-08T09:02:06;93796.41;;;4.20;76.53
7474;BME280;3778;42.572;23.426;2024-03-08T09:04:33;93795.75;;;4.24;78.06
7474;BME280;3778;42.572;23.426;2024-03-08T09:07:00;93799.50;;;4.22;77.13
7474;BME280;3778;42.572;23.426;2024-03-08T09:09:27;93798.81;;;4.15;77.82
7474;BME280;3778;42.572;23.426;2024-03-08T09:11:52;93801.72;;;4.18;76.36
7474;BME280;3778;42.572;23.426;2024-03-08T09:14:19;93800.03;;;4.12;76.80
7474;BME280;3778;42.572;23.426;2024-03-08T09:16:45;93807.63;;;4.19;77.53
7474;BME280;3778;42.572;23.426;2024-03-08T09:19:12;93805.66;;;4.33;77.57
7474;BME280;3778;42.572;23.426;2024-03-08T09:21:38;93807.66;;;4.42;77.43
7474;BME280;3778;42.572;23.426;2024-03-08T09:24:05;93811.13;;;4.48;76.08
7474;BME280;3778;42.572;23.426;2024-03-08T09:26:32;93811.50;;;4.63;76.45
7474;BME280;3778;42.572;23.426;2024-03-08T09:28:58;93803.97;;;4.68;74.28
7474;BME280;3778;42.572;23.426;2024-03-08T09:31:24;93806.63;;;4.62;73.88
7474;BME280;3778;42.572;23.426;2024-03-08T09:33:49;93808.41;;;4.61;72.15
7474;BME280;3778;42.572;23.426;2024-03-08T09:36:15;93802.03;;;4.52;73.17
7474;BME280;3778;42.572;23.426;2024-03-08T09:38:41;93796.22;;;4.87;73.09
7474;BME280;3778;42.572;23.426;2024-03-08T09:41:06;93796.63;;;4.83;72.25
7474;BME280;3778;42.572;23.426;2024-03-08T09:43:32;93795.09;;;4.94;72.25
7474;BME280;3778;42.572;23.426;2024-03-08T09:45:59;93797.19;;;5.09;74.02
7474;BME280;3778;42.572;23.426;2024-03-08T09:48:26;93796.88;;;5.17;74.17
7474;BME280;3778;42.572;23.426;2024-03-08T09:50:51;93793.97;;;5.25;71.76
7474;BME280;3778;42.572;23.426;2024-03-08T09:53:17;93796.66;;;5.19;70.06
7474;BME280;3778;42.572;23.426;2024-03-08T09:55:43;93798.66;;;5.28;70.39
7474;BME280;3778;42.572;23.426;2024-03-08T09:58:12;93790.38;;;5.61;69.93
7474;BME280;3778;42.572;23.426;2024-03-08T10:00:53;93791.06;;;5.97;68.71
7474;BME280;3778;42.572;23.426;2024-03-08T10:03:21;93792.19;;;6.01;68.17
7474;BME280;3778;42.572;23.426;2024-03-08T10:05:47;93799.16;;;6.06;67.92
7474;BME280;3778;42.572;23.426;2024-03-08T10:08:13;93796.09;;;5.92;68.01
7474;BME280;3778;42.572;23.426;2024-03-08T10:10:39;93785.44;;;5.83;67.00
7474;BME280;3778;42.572;23.426;2024-03-08T10:13:06;93787.97;;;5.83;65.91
7474;BME280;3778;42.572;23.426;2024-03-08T10:15:31;93789.63;;;5.89;69.36
7474;BME280;3778;42.572;23.426;2024-03-08T10:17:58;93792.63;;;5.98;67.82
7474;BME280;3778;42.572;23.426;2024-03-08T10:20:24;93794.22;;;6.16;68.18
7474;BME280;3778;42.572;23.426;2024-03-08T10:22:51;93795.19;;;6.27;67.83
7474;BME280;3778;42.572;23.426;2024-03-08T10:25:19;93793.31;;;5.82;67.22
7474;BME280;3778;42.572;23.426;2024-03-08T10:27:44;93793.06;;;5.55;69.30
7474;BME280;3778;42.572;23.426;2024-03-08T10:30:13;93789.84;;;5.48;68.31
7474;BME280;3778;42.572;23.426;2024-03-08T10:32:39;93791.59;;;5.59;69.49
7474;BME280;3778;42.572;23.426;2024-03-08T10:35:07;93795.41;;;5.33;66.57
7474;BME280;3778;42.572;23.426;2024-03-08T10:37:38;93790.63;;;5.36;66.55
7474;BME280;3778;42.572;23.426;2024-03-08T10:40:10;93783.94;;;5.59;64.91
7474;BME280;3778;42.572;23.426;2024-03-08T10:42:56;93781.97;;;5.89;64.49
7474;BME280;3778;42.572;23.426;2024-03-08T10:45:34;93782.34;;;6.10;65.07
7474;BME280;3778;42.572;23.426;2024-03-08T10:50:48;93770.34;;;6.56;60.85
7474;BME280;3778;42.572;23.426;2024-03-08T10:53:18;93770.63;;;6.59;62.55
7474;BME280;3778;42.572;23.426;2024-03-08T10:55:46;93769.69;;;6.49;63.66
7474;BME280;3778;42.572;23.426;2024-03-08T10:58:12;93771.47;;;6.65;64.39
7474;BME280;3778;42.572;23.426;2024-03-08T11:00:37;93769.00;;;6.53;62.52
7474;BME280;3778;42.572;23.426;2024-03-08T11:03:04;93766.84;;;6.62;63.79
7474;BME280;3778;42.572;23.426;2024-03-08T11:05:40;93765.06;;;6.62;63.03
7474;BME280;3778;42.572;23.426;2024-03-08T11:10:51;93755.72;;;6.90;61.25
7474;BME280;3778;42.572;23.426;2024-03-08T11:13:47;93761.72;;;6.62;58.70
7474;BME280;3778;42.572;23.426;2024-03-08T11:19:01;93756.34;;;6.47;59.88
7474;BME280;3778;42.572;23.426;2024-03-08T11:21:30;93746.63;;;6.49;61.14
7474;BME280;3778;42.572;23.426;2024-03-08T11:24:09;93748.06;;;6.56;61.61
7474;BME280;3778;42.572;23.426;2024-03-08T11:26:37;93753.09;;;6.51;62.70
7474;BME280;3778;42.572;23.426;2024-03-08T11:32:11;93743.78;;;6.62;62.99
7474;BME280;3778;42.572;23.426;2024-03-08T11:34:47;93744.72;;;6.56;61.35
7474;BME280;3778;42.572;23.426;2024-03-08T11:37:14;93741.59;;;6.54;62.27
7474;BME280;3778;42.572;23.426;2024-03-08T11:39:41;93744.41;;;6.52;62.85
7474;BME280;3778;42.572;23.426;2024-03-08T11:42:11;93731.75;;;6.62;59.90
7474;BME280;3778;42.572;23.426;2024-03-08T11:44:37;93742.78;;;6.80;59.36
7474;BME280;3778;42.572;23.426;2024-03-08T11:47:09;93729.22;;;7.01;59.44
7474;BME280;3778;42.572;23.426;2024-03-08T11:49:36;93726.03;;;7.11;59.30
7474;BME280;3778;42.572;23.426;2024-03-08T11:52:01;93726.22;;;7.70;56.94
7474;BME280;3778;42.572;23.426;2024-03-08T11:54:28;93724.13;;;7.67;56.59
7474;BME280;3778;42.572;23.426;2024-03-08T11:56:56;93725.56;;;7.79;56.44
7474;BME280;3778;42.572;23.426;2024-03-08T11:59:28;93730.47;;;7.37;58.90
7474;BME280;3778;42.572;23.426;2024-03-08T12:02:05;93730.25;;;7.00;60.44
7474;BME280;3778;42.572;23.426;2024-03-08T12:04:32;93730.75;;;6.80;60.59
7474;BME280;3778;42.572;23.426;2024-03-08T12:07:02;93726.16;;;6.65;60.11
7474;BME280;3778;42.572;23.426;2024-03-08T12:09:30;93734.56;;;6.44;60.58
7474;BME280;3778;42.572;23.426;2024-03-08T12:11:55;93731.34;;;6.37;61.90
7474;BME280;3778;42.572;23.426;2024-03-08T12:14:21;93730.22;;;6.44;61.01
7474;BME280;3778;42.572;23.426;2024-03-08T12:16:47;93731.75;;;6.45;61.05
7474;BME280;3778;42.572;23.426;2024-03-08T12:19:13;93729.97;;;6.46;60.38
7474;BME280;3778;42.572;23.426;2024-03-08T12:21:39;93726.66;;;6.62;60.99
7474;BME280;3778;42.572;23.426;2024-03-08T12:24:15;93721.03;;;6.82;60.03
7474;BME280;3778;42.572;23.426;2024-03-08T12:26:42;93716.47;;;6.67;60.36
7474;BME280;3778;42.572;23.426;2024-03-08T12:31:43;93717.84;;;6.75;59.48
7474;BME280;3778;42.572;23.426;2024-03-08T12:34:08;93716.94;;;6.81;58.92
7474;BME280;3778;42.572;23.426;2024-03-08T12:36:35;93710.78;;;6.65;58.97
7474;BME280;3778;42.572;23.426;2024-03-08T12:39:01;93705.41;;;6.84;61.19
7474;BME280;3778;42.572;23.426;2024-03-08T12:41:29;93715.06;;;6.77;59.78
7474;BME280;3778;42.572;23.426;2024-03-08T12:43:54;93719.03;;;6.67;61.42
7474;BME280;3778;42.572;23.426;2024-03-08T12:46:21;93708.91;;;6.78;60.67
7474;BME280;3778;42.572;23.426;2024-03-08T12:48:47;93702.56;;;6.80;61.06
7474;BME280;3778;42.572;23.426;2024-03-08T12:51:14;93697.72;;;6.84;60.68
7474;BME280;3778;42.572;23.426;2024-03-08T12:53:44;93699.00;;;6.81;61.58
7474;BME280;3778;42.572;23.426;2024-03-08T12:56:10;93709.00;;;6.66;60.17
7474;BME280;3778;42.572;23.426;2024-03-08T12:58:36;93712.41;;;6.71;61.88
7474;BME280;3778;42.572;23.426;2024-03-08T13:01:03;93705.22;;;6.68;61.53
7474;BME280;3778;42.572;23.426;2024-03-08T13:03:35;93704.38;;;6.63;60.85
7474;BME280;3778;42.572;23.426;2024-03-08T13:06:02;93701.13;;;6.67;60.14
7474;BME280;3778;42.572;23.426;2024-03-08T13:08:29;93702.19;;;6.71;61.27
7474;BME280;3778;42.572;23.426;2024-03-08T13:10:56;93697.81;;;6.72;60.64
7474;BME280;3778;42.572;23.426;2024-03-08T13:13:22;93699.94;;;6.75;59.60
7474;BME280;3778;42.572;23.426;2024-03-08T13:15:48;93706.69;;;6.81;60.00
7474;BME280;3778;42.572;23.426;2024-03-08T13:18:14;93706.59;;;6.93;60.75
7474;BME280;3778;42.572;23.426;2024-03-08T13:20:41;93708.19;;;6.99;60.89
7474;BME280;3778;42.572;23.426;2024-03-08T13:23:09;93711.47;;;6.94;60.77
7474;BME280;3778;42.572;23.426;2024-03-08T13:25:34;93708.97;;;6.99;62.29
7474;BME280;3778;42.572;23.426;2024-03-08T13:27:59;93699.75;;;6.98;61.31
7474;BME280;3778;42.572;23.426;2024-03-08T13:30:26;93699.31;;;7.07;60.58
7474;BME280;3778;42.572;23.426;2024-03-08T13:32:54;93700.13;;;7.29;63.11